Latest Weather Observations for McArthur River Mine

IDD60801

Issued at 3:01 pm CST Sunday 29 May 2016 (issued every 30 minutes, with the page automatically refreshed every 10 minutes)

About weather observations | Map of weather stations | Latest weather observations for NT | Other Formats
Station Details ID: 014704 Name: MCARTHUR RIVER MINE AIRPORT Lat: -16.44 Lon: 136.08 Height: 40.0 m
Data from the previous 72 hours. | See also: Recent months at McArthur River Mine
Date/Time
CST
Temp
°C
App
Temp
°C
Dew
Point
Rel
Hum
%
Delta-T
°C
Wind Press
QNH
hPa
Press
MSL
hPa
Rain
since 9 am
mm
Dir
 
Spd
km/h
Gust
km/h
Spd
kts
Gust
kts
29/03:00pm 33.7 33.3 14.2 30 12.0 NE 9 15 5 8 1012.2 1012.0 0.0
29/02:30pm 33.6 33.8 14.6 31 11.7 NNE 7 17 4 9 1012.5 1012.3 0.0
29/02:00pm 33.2 32.7 14.8 33 11.4 ESE 11 26 6 14 1012.8 1012.6 0.0
29/01:30pm 33.1 32.9 14.7 33 11.3 NE 9 13 5 7 1013.3 1013.1 0.0
29/01:00pm 33.2 33.4 14.8 33 11.4 ENE 7 17 4 9 1013.8 1013.6 0.0
29/12:30pm 32.4 31.8 14.5 33 11.0 E 11 19 6 10 1014.3 1014.1 0.0
29/12:00pm 32.5 32.1 14.1 32 11.2 E 9 17 5 9 1014.9 1014.7 0.0
29/11:30am 31.5 30.3 12.8 32 11.1 NE 11 17 6 9 1015.3 1015.1 0.0
29/11:00am 30.9 29.7 12.8 33 10.8 ENE 11 20 6 11 1015.7 1015.5 0.0
29/10:30am 30.4 28.8 12.8 34 10.4 ENE 13 19 7 10 1015.8 1015.6 0.0
29/10:00am 29.8 27.5 11.8 33 10.5 E 15 20 8 11 1015.9 1015.7 0.0
29/09:30am 29.4 27.1 11.9 34 10.2 E 15 22 8 12 1015.9 1015.7 0.0
29/09:00am 28.2 26.3 12.9 38 9.0 E 15 28 8 15 1015.9 1015.7 0.0
29/08:30am 27.5 27.3 16.8 52 6.7 ESE 13 20 7 11 1015.6 1015.4 0.0
29/08:00am 26.1 27.8 18.5 63 4.8 ESE 7 11 4 6 1015.3 1015.1 0.0
29/07:30am 23.4 27.4 20.5 84 1.9 CALM 0 6 0 3 1015.0 1014.8 0.0
29/07:00am 22.4 25.1 20.3 88 1.4 S 6 7 3 4 1014.7 1014.5 0.0
29/06:30am 22.4 26.1 19.9 86 1.6 CALM 0 0 0 0 1014.3 1014.1 0.0
29/06:00am 23.0 26.5 20.3 85 1.7 N 2 6 1 3 1013.8 1013.6 0.0
29/05:30am 22.8 26.6 20.1 85 1.7 CALM 0 6 0 3 1013.4 1013.2 0.0
29/05:00am 22.9 26.7 20.2 85 1.7 CALM 0 0 0 0 1013.6 1013.4 0.0
29/04:30am 23.5 26.0 19.8 80 2.4 WNW 6 7 3 4 1013.4 1013.2 0.0
29/04:00am 24.5 27.5 19.3 73 3.3 ENE 2 6 1 3 1013.4 1013.2 0.0
29/03:30am 25.1 27.4 19.9 73 3.4 NNE 7 9 4 5 1013.4 1013.2 0.0
29/03:00am 25.4 28.0 20.4 74 3.3 SE 7 9 4 5 1013.5 1013.3 0.0
29/02:30am 25.7 27.7 20.0 71 3.7 E 9 15 5 8 1013.5 1013.3 0.0
29/02:00am 25.5 29.3 21.0 76 3.0 NE 2 7 1 4 1013.6 1013.4 0.0
29/01:30am 25.4 28.3 20.6 75 3.1 NE 6 9 3 5 1013.7 1013.5 0.0
29/01:00am 25.6 28.5 20.6 74 3.3 E 6 7 3 4 1013.9 1013.7 0.0
29/12:30am 25.9 28.6 20.7 73 3.4 E 7 9 4 5 1013.9 1013.7 0.0
29/12:00am 26.2 30.3 20.8 72 3.6 CALM 0 6 0 3 1013.8 1013.6 0.0
 
Date/Time
CST
Temp
°C
App
Temp
°C
Dew
Point
Rel
Hum
%
Delta-T
°C
Wind Press
QNH
hPa
Press
MSL
hPa
Rain
since 9 am
mm
Dir
 
Spd
km/h
Gust
km/h
Spd
kts
Gust
kts
28/11:30pm 26.6 30.4 20.9 71 3.8 ESE 2 7 1 4 1013.9 1013.7 0.0
28/11:00pm 26.6 29.5 21.1 72 3.6 NNE 7 11 4 6 1014.1 1013.9 0.0
28/10:30pm 26.7 29.5 21.5 73 3.5 NNE 9 15 5 8 1014.2 1014.0 0.0
28/10:00pm 26.9 30.1 21.6 72 3.5 NNE 7 13 4 7 1014.3 1014.1 0.0
28/09:30pm 27.2 29.4 21.2 69 4.0 NE 11 15 6 8 1014.2 1014.0 0.0
28/09:00pm 27.2 29.6 20.8 68 4.2 NE 9 13 5 7 1013.8 1013.6 0.0
28/08:30pm 27.5 29.1 20.8 67 4.4 NE 13 17 7 9 1013.7 1013.5 0.0
28/08:00pm 27.8 29.9 20.9 66 4.6 NE 11 15 6 8 1013.2 1013.0 0.0
28/07:30pm 28.3 29.9 20.8 63 5.0 NE 13 20 7 11 1012.7 1012.5 0.0
28/07:00pm 28.9 29.6 20.4 60 5.6 ENE 17 24 9 13 1012.3 1012.1 0.0
28/06:30pm 29.9 31.0 19.6 54 6.7 NE 13 20 7 11 1012.0 1011.8 0.0
28/06:00pm 30.9 31.6 17.9 45 8.3 NE 11 20 6 11 1011.7 1011.5 0.0
28/05:30pm 31.9 31.6 17.4 42 9.3 ENE 15 24 8 13 1011.5 1011.3 0.0
28/05:00pm 33.0 32.8 16.8 38 10.3 NE 13 24 7 13 1011.3 1011.1 0.0
28/04:30pm 33.3 33.4 16.6 36 10.6 NNE 11 17 6 9 1011.2 1011.0 0.0
28/04:00pm 33.3 34.2 16.6 36 10.6 ESE 7 13 4 7 1011.1 1010.9 0.0
28/03:30pm 33.0 33.8 16.4 37 10.5 ENE 7 15 4 8 1011.4 1011.2 0.0
28/03:00pm 32.7 33.3 15.7 36 10.6 ENE 7 13 4 7 1011.6 1011.4 0.0
28/02:30pm 32.5 32.3 14.6 34 11.0 NE 9 13 5 7 1011.9 1011.7 0.0
28/02:00pm 32.4 32.8 16.3 38 10.1 NE 9 17 5 9 1012.1 1011.9 0.0
28/01:30pm 32.2 33.2 16.9 40 9.7 NE 7 13 4 7 1012.7 1012.5 0.0
28/01:00pm 32.4 33.7 17.5 41 9.5 ENE 7 17 4 9 1013.2 1013.0 0.0
28/12:30pm 31.7 32.3 17.6 43 9.0 E 11 19 6 10 1013.6 1013.4 0.0
28/12:00pm 31.2 32.0 18.2 46 8.4 ESE 11 17 6 9 1014.1 1013.9 0.0
28/11:30am 30.9 32.0 18.9 48 7.8 SE 11 20 6 11 1014.9 1014.7 0.0
28/11:00am 30.0 31.6 19.1 52 7.1 SE 9 15 5 8 1015.3 1015.1 0.0
28/10:30am 30.5 32.9 20.1 53 6.9 ESE 7 15 4 8 1015.6 1015.4 0.0
28/10:00am 28.1 29.2 20.4 63 5.1 SE 15 19 8 10 1015.8 1015.6 0.0
28/09:30am 28.3 30.1 21.1 65 4.8 SE 13 20 7 11 1015.9 1015.7 0.0
28/09:00am 28.9 31.9 21.9 66 4.7 ESE 9 13 5 7 1016.0 1015.8 0.0
28/08:30am 27.3 29.8 21.8 72 3.7 ESE 11 15 6 8 1015.9 1015.7 0.0
28/08:00am 25.9 29.6 22.6 82 2.2 SE 7 11 4 6 1015.7 1015.5 0.0
28/07:30am 25.1 29.1 22.8 87 1.6 SSE 6 7 3 4 1015.3 1015.1 0.0
28/07:00am 24.2 27.9 22.5 90 1.1 SSW 7 9 4 5 1014.7 1014.5 0.0
28/06:30am 24.1 28.9 22.9 93 0.8 S 2 7 1 4 1014.3 1014.1 0.0
28/06:00am 23.8 28.7 22.4 92 0.9 CALM 0 0 0 0 1014.0 1013.8 0.0
28/05:30am 24.0 28.8 22.1 89 1.3 CALM 0 0 0 0 1013.8 1013.6 0.0
28/05:00am 24.9 28.7 22.4 86 1.7 S 6 7 3 4 1013.6 1013.4 0.0
28/04:30am 25.1 29.0 22.6 86 1.7 SSW 6 7 3 4 1013.6 1013.4 0.0
28/04:00am 25.0 29.0 22.7 87 1.6 S 6 9 3 5 1013.2 1013.0 0.0
28/03:30am 24.6 28.4 22.7 89 1.3 S 7 9 4 5 1013.3 1013.1 0.0
28/03:00am 24.7 27.3 22.6 88 1.4 SSW 13 20 7 11 1013.0 1012.8 0.0
28/02:30am 25.1 28.8 22.6 86 1.7 ENE 7 11 4 6 1012.5 1012.3 0.0
28/02:00am 24.8 28.5 22.3 86 1.7 ESE 6 7 3 4 1012.6 1012.4 0.0
28/01:30am 25.2 29.7 22.3 84 1.9 NE 2 6 1 3 1012.7 1012.5 0.0
28/01:00am 25.7 29.0 22.6 83 2.1 NE 9 13 5 7 1013.0 1012.8 0.0
28/12:30am 26.1 29.9 22.8 82 2.2 ENE 7 11 4 6 1013.1 1012.9 0.0
28/12:00am 26.1 29.9 22.8 82 2.2 ENE 7 9 4 5 1013.2 1013.0 0.0
 
Date/Time
CST
Temp
°C
App
Temp
°C
Dew
Point
Rel
Hum
%
Delta-T
°C
Wind Press
QNH
hPa
Press
MSL
hPa
Rain
since 9 am
mm
Dir
 
Spd
km/h
Gust
km/h
Spd
kts
Gust
kts
27/11:30pm 26.5 30.4 23.0 81 2.4 NE 7 11 4 6 1013.3 1013.1 0.0
27/11:00pm 26.7 30.6 23.0 80 2.5 NE 7 11 4 6 1013.2 1013.0 0.0
27/10:30pm 27.0 30.8 22.8 78 2.9 ESE 7 11 4 6 1013.2 1013.0 0.0
27/10:00pm 27.4 30.9 22.8 76 3.1 NNE 9 15 5 8 1013.0 1012.8 0.0
27/09:30pm 27.8 30.8 22.7 74 3.5 NE 11 20 6 11 1012.9 1012.7 0.0
27/09:00pm 28.1 31.2 22.8 73 3.6 NNE 11 17 6 9 1012.6 1012.4 0.0
27/08:30pm 28.5 31.9 22.7 71 3.9 NNE 9 17 5 9 1012.3 1012.1 0.0
27/08:00pm 29.1 31.7 22.6 68 4.4 NNE 13 20 7 11 1012.0 1011.8 0.0
27/07:30pm 29.7 31.6 22.7 66 4.8 NNE 17 26 9 14 1011.6 1011.4 0.0
27/07:00pm 30.6 32.4 22.5 62 5.5 NNE 17 28 9 15 1011.2 1011.0 0.0
27/06:30pm 32.4 33.4 17.8 41 9.4 NE 9 17 5 9 1010.8 1010.6 0.0
27/06:00pm 33.6 35.2 16.0 34 11.1 ESE 2 7 1 4 1010.6 1010.4 0.0
27/05:30pm 34.9 35.8 16.2 32 11.9 NE 6 9 3 5 1010.4 1010.2 0.0
27/05:00pm 35.1 36.7 15.9 31 12.1 NNE 2 9 1 5 1010.2 1010.0 0.0
27/04:30pm 35.2 35.5 16.0 31 12.2 NNE 9 11 5 6 1010.2 1010.0 0.0
27/04:00pm 34.9 34.9 16.2 32 11.9 SE 11 20 6 11 1010.2 1010.0 0.0
27/03:30pm 35.0 36.0 16.8 34 11.6 SE 7 19 4 10 1010.3 1010.1 0.0
27/03:00pm 34.8 36.5 18.0 37 10.9 NE 6 9 3 5 1010.7 1010.5 0.0
27/02:30pm 33.2 34.8 18.2 41 9.7 ESE 7 11 4 6 1011.2 1011.0 0.0
27/02:00pm 34.0 35.1 18.1 39 10.3 SW 9 17 5 9 1011.5 1011.3 0.0
27/01:30pm 33.7 35.3 18.2 39 10.1 S 7 13 4 7 1011.8 1011.6 0.0
27/01:00pm 33.7 35.5 18.2 39 10.1 ENE 6 9 3 5 1012.3 1012.1 0.0
27/12:30pm 32.8 34.5 19.3 45 8.9 SW 9 17 5 9 1013.0 1012.8 0.0
27/12:00pm 32.2 34.4 20.5 50 7.8 SSW 9 15 5 8 1013.7 1013.5 0.0
27/11:30am 31.6 34.2 20.5 51 7.4 NW 7 15 4 8 1014.2 1014.0 0.0
27/11:00am 31.3 34.2 21.8 57 6.4 NNE 9 11 5 6 1014.5 1014.3 0.0
27/10:30am 30.3 33.8 22.2 62 5.5 NNE 7 11 4 6 1014.9 1014.7 0.0
27/10:00am 29.8 33.5 22.3 64 5.1 NE 6 11 3 6 1015.1 1014.9 0.0
27/09:30am 28.9 32.8 22.6 69 4.3 ENE 6 9 3 5 1015.1 1014.9 0.0
27/09:00am 27.7 31.6 22.6 74 3.5 ESE 6 7 3 4 1015.1 1014.9 0.0
27/08:30am 27.1 31.1 23.1 79 2.7 E 7 9 4 5 1014.9 1014.7 0.0
27/08:00am 25.1 30.3 22.8 87 1.6 CALM 0 0 0 0 1014.7 1014.5 0.0
27/07:30am 23.7 29.0 23.0 96 0.5 CALM 0 0 0 0 1014.3 1014.1 0.0
27/07:00am 23.2 27.9 22.0 93 0.8 CALM 0 0 0 0 1014.0 1013.8 0.0
27/06:30am 23.6 28.7 22.6 94 0.7 CALM 0 0 0 0 1013.8 1013.6 0.0
27/06:00am 23.7 28.4 22.7 94 0.7 SSW 2 6 1 3 1013.6 1013.4 0.0
27/05:30am 23.8 28.1 22.6 93 0.8 SSW 4 6 2 3 1013.3 1013.1 0.0
27/05:00am 24.0 29.3 23.0 94 0.7 CALM 0 0 0 0 1013.5 1013.3 0.0
27/04:30am 24.0 29.1 22.6 92 0.9 CALM 0 0 0 0 1013.2 1013.0 0.0
27/04:00am 24.3 28.0 22.6 90 1.1 W 7 9 4 5 1013.0 1012.8 0.0
27/03:30am 25.2 29.7 22.9 87 1.6 NE 4 6 2 3 1013.0 1012.8 0.0
27/03:00am 25.6 29.8 23.1 86 1.7 NE 6 7 3 4 1013.1 1012.9 0.0
27/02:30am 25.9 30.1 23.2 85 1.8 ENE 6 7 3 4 1013.3 1013.1 0.0
27/02:00am 25.9 30.0 23.2 85 1.8 ESE 7 9 4 5 1013.4 1013.2 0.0
27/01:30am 26.1 30.2 23.2 84 2.0 ENE 7 9 4 5 1013.4 1013.2 0.0
27/01:20am 26.1 29.8 23.2 84 2.0 ENE 9 13 5 7 1013.5 1013.3 0.0
27/01:01am 26.1 29.9 23.4 85 1.8 ENE 9 11 5 6 1013.5 1013.3 0.0
27/01:00am 26.1 29.9 23.4 85 1.8 ENE 9 11 5 6 1013.5 1013.3 0.0
27/12:45am 25.9 30.0 23.2 85 1.8 NE 7 11 4 6 1013.6 1013.4 0.0
27/12:35am 25.9 30.0 23.2 85 1.8 NE 7 9 4 5 1013.5 1013.3 0.0
27/12:30am 25.9 30.0 23.2 85 1.8 NE 7 9 4 5 1013.5 1013.3 0.0
27/12:00am 26.1 29.8 23.2 84 2.0 ENE 9 15 5 8 1013.3 1013.1 0.0
 
Date/Time
CST
Temp
°C
App
Temp
°C
Dew
Point
Rel
Hum
%
Delta-T
°C
Wind Press
QNH
hPa
Press
MSL
hPa
Rain
since 9 am
mm
Dir
 
Spd
km/h
Gust
km/h
Spd
kts
Gust
kts
26/11:30pm 26.2 30.0 22.7 81 2.4 NE 7 11 4 6 1013.3 1013.1 0.0
26/11:00pm 26.6 30.0 22.7 79 2.6 NE 9 13 5 7 1013.3 1013.1 0.0
26/10:30pm 26.9 30.1 22.3 76 3.1 NE 9 15 5 8 1013.2 1013.0 0.0
26/10:00pm 27.4 30.1 22.1 73 3.6 NE 11 17 6 9 1013.2 1013.0 0.0
26/09:30pm 27.9 30.5 21.9 70 4.0 NNE 11 19 6 10 1013.1 1012.9 0.0
26/09:00pm 28.5 30.5 21.5 66 4.7 NNE 13 20 7 11 1012.9 1012.7 0.0
26/08:30pm 29.0 30.1 19.6 57 6.1 NNE 13 20 7 11 1012.7 1012.5 0.0
26/08:00pm 28.6 30.8 18.4 54 6.5 N 4 6 2 3 1012.0 1011.8 0.0
26/07:30pm 29.4 30.7 17.6 49 7.5 NNW 7 7 4 4 1011.6 1011.4 0.0
26/07:00pm 29.3 30.6 17.5 49 7.5 WNW 7 7 4 4 1011.3 1011.1 0.0
26/06:30pm 30.5 33.0 17.2 44 8.4 CALM 0 7 0 4 1010.9 1010.7 0.0
26/06:00pm 32.2 33.1 16.1 38 10.1 NNW 6 7 3 4 1010.7 1010.5 0.0
26/05:30pm 34.7 36.4 15.1 31 12.2 CALM 0 0 0 0 1010.5 1010.3 0.0
26/05:00pm 34.7 35.4 14.6 30 12.4 W 4 11 2 6 1010.4 1010.2 0.0
26/04:30pm 34.7 35.0 15.1 31 12.2 S 7 13 4 7 1010.4 1010.2 0.0
26/04:00pm 34.0 33.7 14.5 31 12.0 SSE 9 13 5 7 1010.4 1010.2 0.0
26/03:30pm 34.9 35.5 15.3 31 12.3 SW 6 9 3 5 1010.4 1010.2 0.0

Other Formats:

Comma delimited format used in spreadsheet applications
http://www.bom.gov.au/fwo/IDD60801/IDD60801.94239.axf

JavaScript Object Notation format (JSON) in row-major order
http://www.bom.gov.au/fwo/IDD60801/IDD60801.94239.json